createdAt,value
2019-05-03T00:00:42.928Z,10.23
2019-05-03T00:03:13.154Z,9.57
2019-05-03T00:05:43.277Z,10.17
2019-05-03T00:08:12.634Z,9.93
2019-05-03T00:10:42.492Z,9.03
2019-05-03T00:13:12.523Z,8.97
2019-05-03T00:15:42.979Z,8.50
2019-05-03T00:18:11.782Z,9.00
2019-05-03T00:20:42.004Z,9.43
2019-05-03T00:23:12.096Z,8.00
2019-05-03T00:25:41.815Z,8.20
2019-05-03T00:28:10.481Z,8.17
2019-05-03T00:30:38.966Z,8.60
2019-05-03T00:33:07.554Z,8.10
2019-05-03T00:35:55.825Z,6.50
2019-05-03T00:39:21.710Z,5.40
2019-05-03T00:41:51.990Z,4.47
2019-05-03T00:44:22.212Z,3.67
2019-05-03T00:46:51.768Z,4.23
2019-05-03T00:49:22.511Z,2.90
2019-05-03T00:51:51.700Z,3.07
2019-05-03T00:54:22.177Z,2.80
2019-05-03T00:56:52.249Z,2.37
2019-05-03T00:59:22.167Z,2.77
2019-05-03T01:01:52.128Z,2.33
2019-05-03T01:04:22.336Z,2.73
2019-05-03T01:06:52.702Z,2.03
2019-05-03T01:09:22.992Z,1.50
2019-05-03T01:11:52.474Z,2.30
2019-05-03T01:14:22.602Z,2.30
2019-05-03T01:16:52.187Z,1.67
2019-05-03T01:19:22.594Z,1.90
2019-05-03T01:21:51.545Z,2.00
2019-05-03T01:24:21.774Z,1.47
2019-05-03T01:26:52.449Z,1.83
2019-05-03T01:29:22.677Z,1.80
2019-05-03T01:31:52.762Z,1.23
2019-05-03T01:34:22.024Z,1.57
2019-05-03T01:36:51.874Z,1.80
2019-05-03T01:39:22.209Z,1.60
2019-05-03T01:41:51.901Z,2.50
2019-05-03T01:44:22.011Z,1.47
2019-05-03T01:46:53.595Z,1.80
2019-05-03T01:49:23.717Z,2.10
2019-05-03T01:52:02.852Z,1.60
2019-05-03T01:54:32.147Z,2.57
2019-05-03T01:57:02.444Z,1.87
2019-05-03T01:59:32.059Z,2.03
2019-05-03T02:02:02.399Z,1.80
2019-05-03T02:04:38.584Z,2.30
2019-05-03T02:07:07.075Z,2.00
2019-05-03T02:09:35.551Z,1.87
2019-05-03T02:12:04.140Z,1.90
2019-05-03T02:14:32.620Z,1.80
2019-05-03T02:17:01.839Z,1.83
2019-05-03T02:19:32.767Z,1.40
2019-05-03T02:22:02.909Z,1.40
2019-05-03T02:24:32.765Z,1.80
2019-05-03T02:27:02.108Z,2.20
2019-05-03T02:29:32.566Z,1.83
2019-05-03T02:32:03.247Z,1.73
2019-05-03T02:34:32.670Z,2.07
2019-05-03T02:37:02.932Z,1.87
2019-05-03T02:39:33.435Z,2.13
2019-05-03T02:42:07.848Z,2.20
2019-05-03T02:44:35.604Z,2.20
2019-05-03T02:47:11.172Z,1.93
2019-05-03T02:49:42.224Z,2.17
2019-05-03T02:52:15.022Z,1.90
2019-05-03T02:54:42.671Z,2.73
2019-05-03T02:57:11.147Z,2.63
2019-05-03T02:59:39.637Z,2.50
2019-05-03T03:02:08.224Z,2.40
2019-05-03T03:04:36.703Z,2.27
2019-05-03T03:07:05.846Z,2.50
2019-05-03T03:09:36.008Z,2.40
2019-05-03T03:12:06.064Z,2.53
2019-05-03T03:14:36.193Z,1.97
2019-05-03T03:17:06.617Z,2.67
2019-05-03T03:19:35.804Z,2.00
2019-05-03T03:22:06.202Z,1.63
2019-05-03T03:24:36.240Z,1.40
2019-05-03T03:27:06.474Z,1.60
2019-05-03T03:29:35.871Z,1.73
2019-05-03T03:32:18.774Z,1.30
2019-05-03T03:34:56.858Z,1.67
2019-05-03T03:37:21.295Z,1.13
2019-05-03T03:39:50.297Z,1.53
2019-05-03T03:42:19.253Z,1.43
2019-05-03T03:44:47.771Z,1.40
2019-05-03T03:47:16.986Z,1.50
2019-05-03T03:49:46.446Z,1.40
2019-05-03T03:52:16.032Z,1.40
2019-05-03T03:54:45.716Z,1.70
2019-05-03T03:57:16.450Z,1.60
2019-05-03T03:59:45.465Z,2.00
2019-05-03T04:02:15.964Z,2.17
2019-05-03T04:04:45.134Z,2.77
2019-05-03T04:07:15.782Z,2.77
2019-05-03T04:09:45.701Z,1.50
2019-05-03T04:12:16.448Z,2.10
2019-05-03T04:14:46.372Z,1.57
2019-05-03T04:17:28.670Z,1.87
2019-05-03T04:19:58.910Z,1.70
2019-05-03T04:22:27.395Z,1.60
2019-05-03T04:24:55.976Z,1.97
2019-05-03T04:27:27.506Z,1.70
2019-05-03T04:29:55.739Z,1.37
2019-05-03T04:32:28.765Z,1.43
2019-05-03T04:34:55.912Z,2.70
2019-05-03T04:37:26.545Z,2.10
2019-05-03T04:39:56.079Z,1.50
2019-05-03T04:42:25.548Z,1.40
2019-05-03T04:44:56.183Z,1.60
2019-05-03T04:47:26.286Z,2.13
2019-05-03T04:49:55.591Z,2.00
2019-05-03T04:52:25.873Z,13.57
2019-05-03T04:54:56.670Z,2.50
2019-05-03T04:57:36.336Z,2.10
2019-05-03T04:59:56.347Z,1.80
2019-05-03T05:02:26.251Z,1.90
2019-05-03T05:04:55.620Z,1.87
2019-05-03T05:07:26.011Z,1.83
2019-05-03T05:09:56.201Z,2.17
2019-05-03T05:12:25.392Z,2.70
2019-05-03T05:14:56.673Z,2.47
2019-05-03T05:17:39.188Z,1.80
2019-05-03T05:20:09.309Z,1.50
2019-05-03T05:22:37.811Z,1.40
2019-05-03T05:25:08.328Z,2.23
2019-05-03T05:27:48.701Z,2.80
2019-05-03T05:30:10.234Z,2.20
2019-05-03T05:32:38.792Z,1.93
2019-05-03T05:35:07.276Z,3.03
2019-05-03T05:37:35.764Z,2.73
2019-05-03T05:40:06.206Z,2.30
2019-05-03T05:42:35.142Z,2.23
2019-05-03T05:45:05.011Z,2.30
2019-05-03T05:47:41.264Z,2.07
2019-05-03T05:50:14.923Z,2.80
2019-05-03T05:52:44.801Z,2.03
2019-05-03T05:55:31.399Z,1.87
2019-05-03T05:58:05.286Z,1.57
2019-05-03T06:00:39.433Z,2.03
2019-05-03T06:03:07.905Z,2.00
2019-05-03T06:05:36.393Z,1.60
2019-05-03T06:08:12.145Z,2.77
2019-05-03T06:10:58.149Z,1.90
2019-05-03T06:13:44.855Z,1.50
2019-05-03T06:16:15.495Z,2.40
2019-05-03T06:18:54.630Z,2.00
2019-05-03T06:21:27.406Z,2.20
2019-05-03T06:23:57.519Z,2.57
2019-05-03T06:26:34.932Z,1.93
2019-05-03T06:29:04.645Z,2.37
2019-05-03T06:31:35.031Z,2.50
2019-05-03T06:34:04.527Z,1.77
2019-05-03T06:36:33.163Z,2.07
2019-05-03T06:39:01.641Z,1.50
2019-05-03T06:41:30.319Z,1.60
2019-05-03T06:43:58.815Z,1.77
2019-05-03T06:46:46.854Z,2.00
2019-05-03T06:49:15.451Z,2.50
2019-05-03T06:51:45.587Z,2.43
2019-05-03T06:54:15.753Z,1.50
2019-05-03T06:56:45.196Z,2.00
2019-05-03T06:59:18.387Z,2.10
2019-05-03T07:01:51.276Z,1.77
2019-05-03T07:04:34.711Z,1.93
2019-05-03T07:07:08.005Z,1.80
2019-05-03T07:09:38.128Z,1.60
2019-05-03T07:12:06.616Z,2.10
2019-05-03T07:14:35.299Z,1.77
2019-05-03T07:17:05.593Z,1.77
2019-05-03T07:19:35.404Z,1.50
2019-05-03T07:22:05.005Z,1.73
2019-05-03T07:24:37.853Z,1.83
2019-05-03T07:27:05.417Z,1.33
2019-05-03T07:29:34.089Z,1.37
2019-05-03T07:32:02.530Z,1.70
2019-05-03T07:34:31.059Z,1.50
2019-05-03T07:36:59.541Z,2.03
2019-05-03T07:39:28.025Z,1.97
2019-05-03T07:41:56.478Z,1.37
2019-05-03T07:44:25.605Z,1.37
2019-05-03T07:46:55.471Z,1.60
2019-05-03T07:49:24.967Z,1.97
2019-05-03T07:51:55.290Z,1.20
2019-05-03T07:54:25.280Z,1.47
2019-05-03T07:56:55.401Z,1.30
2019-05-03T07:59:25.117Z,1.53
2019-05-03T08:01:55.442Z,1.90
2019-05-03T08:04:25.544Z,2.30
2019-05-03T08:06:54.925Z,1.87
2019-05-03T08:09:24.640Z,2.07
2019-05-03T08:11:54.735Z,1.00
2019-05-03T08:14:25.096Z,1.80
2019-05-03T08:16:54.821Z,1.30
2019-05-03T08:19:26.834Z,1.90
2019-05-03T08:21:56.435Z,1.60
2019-05-03T08:24:25.314Z,1.60
2019-05-03T08:26:55.723Z,1.97
2019-05-03T08:29:24.931Z,1.97
2019-05-03T08:32:01.306Z,2.13
2019-05-03T08:34:31.428Z,1.90
2019-05-03T08:37:09.725Z,1.60
2019-05-03T08:39:38.525Z,1.50
2019-05-03T08:42:11.627Z,1.40
2019-05-03T08:44:40.108Z,2.13
2019-05-03T08:47:08.699Z,2.30
2019-05-03T08:49:37.179Z,2.23
2019-05-03T08:52:05.706Z,1.50
2019-05-03T08:54:34.853Z,3.13
2019-05-03T08:57:03.459Z,1.50
2019-05-03T08:59:32.887Z,1.60
2019-05-03T09:02:03.577Z,1.77
2019-05-03T09:04:37.424Z,1.30
2019-05-03T09:07:02.036Z,1.63
2019-05-03T09:09:34.723Z,1.97
2019-05-03T09:12:04.574Z,2.07
2019-05-03T09:14:42.636Z,3.63
2019-05-03T09:17:04.970Z,2.43
2019-05-03T09:19:34.680Z,2.97
2019-05-03T09:22:05.943Z,2.20
2019-05-03T09:24:35.185Z,2.40
2019-05-03T09:27:05.109Z,2.27
2019-05-03T09:29:41.039Z,1.80
2019-05-03T09:32:05.210Z,1.97
2019-05-03T09:34:35.136Z,1.83
2019-05-03T09:37:04.809Z,2.37
2019-05-03T09:39:35.316Z,2.20
2019-05-03T09:42:04.690Z,1.83
2019-05-03T09:44:35.036Z,2.23
2019-05-03T09:47:05.584Z,2.00
2019-05-03T09:49:34.804Z,1.93
2019-05-03T09:52:08.033Z,4.20
2019-05-03T09:54:38.005Z,1.70
2019-05-03T09:57:06.485Z,1.80
2019-05-03T09:59:35.135Z,1.33
2019-05-03T10:02:04.798Z,1.80
2019-05-03T10:04:33.637Z,2.17
2019-05-03T10:07:02.159Z,1.67
2019-05-03T10:09:30.746Z,1.87
2019-05-03T10:12:00.173Z,2.37
2019-05-03T10:14:28.635Z,1.90
2019-05-03T10:16:58.864Z,2.20
2019-05-03T10:19:37.034Z,2.00
2019-05-03T10:21:57.561Z,1.67
2019-05-03T10:24:26.045Z,2.23
2019-05-03T10:26:55.219Z,2.20
2019-05-03T10:29:25.101Z,2.00
2019-05-03T10:31:58.259Z,2.43
2019-05-03T10:34:26.718Z,3.30
2019-05-03T10:36:55.227Z,1.43
2019-05-03T10:39:26.173Z,1.57
2019-05-03T10:41:54.996Z,2.43
2019-05-03T10:44:24.581Z,4.23
2019-05-03T10:46:53.262Z,1.90
2019-05-03T10:49:21.742Z,2.10
2019-05-03T10:51:54.900Z,1.80
2019-05-03T10:54:23.831Z,1.90
2019-05-03T10:56:55.889Z,2.03
2019-05-03T10:59:24.825Z,1.60
2019-05-03T11:02:00.854Z,1.20
2019-05-03T11:04:29.851Z,2.00
2019-05-03T11:06:58.641Z,1.67
2019-05-03T11:09:27.530Z,1.67
2019-05-03T11:11:56.022Z,1.70
2019-05-03T11:14:25.391Z,1.40
2019-05-03T11:16:55.284Z,1.27
2019-05-03T11:19:25.424Z,1.60
2019-05-03T11:21:54.745Z,1.87
2019-05-03T11:24:27.308Z,1.60
2019-05-03T11:26:55.843Z,1.77
2019-05-03T11:29:24.797Z,2.80
2019-05-03T11:31:55.192Z,1.53
2019-05-03T11:34:31.530Z,1.60
2019-05-03T11:37:18.028Z,1.20
2019-05-03T11:39:46.510Z,1.33
2019-05-03T11:42:16.206Z,1.63
2019-05-03T11:44:45.327Z,2.27
2019-05-03T11:47:15.061Z,1.70
2019-05-03T11:49:45.437Z,1.30
2019-05-03T11:52:15.795Z,2.00
2019-05-03T11:54:45.327Z,1.43
2019-05-03T11:57:16.442Z,1.93
2019-05-03T11:59:45.349Z,1.53
2019-05-03T12:02:18.224Z,2.37
2019-05-03T12:04:46.706Z,2.10
2019-05-03T12:07:18.400Z,1.90
2019-05-03T12:09:47.261Z,2.17
2019-05-03T12:12:17.382Z,1.63
2019-05-03T12:14:45.969Z,2.10
2019-05-03T12:17:20.922Z,1.67
2019-05-03T12:19:47.513Z,2.20
2019-05-03T12:22:17.200Z,2.83
2019-05-03T12:24:46.785Z,1.80
2019-05-03T12:27:15.968Z,2.83
2019-05-03T12:29:44.810Z,1.93
2019-05-03T12:32:14.414Z,1.50
2019-05-03T12:34:43.056Z,1.50
2019-05-03T12:37:11.645Z,3.57
2019-05-03T12:39:40.126Z,2.20
2019-05-03T12:42:08.615Z,2.30
2019-05-03T12:44:37.083Z,2.30
2019-05-03T12:47:06.211Z,1.33
2019-05-03T12:49:35.802Z,2.60
2019-05-03T12:52:05.329Z,1.93
2019-05-03T12:54:35.527Z,2.20
2019-05-03T12:57:05.052Z,2.20
2019-05-03T12:59:38.044Z,2.10
2019-05-03T13:02:08.155Z,2.27
2019-05-03T13:04:38.279Z,2.40
2019-05-03T13:07:17.715Z,2.30
2019-05-03T13:09:46.199Z,1.93
2019-05-03T13:12:17.154Z,1.90
2019-05-03T13:14:45.728Z,1.50
2019-05-03T13:17:15.215Z,1.40
2019-05-03T13:19:45.176Z,2.63
2019-05-03T13:22:13.937Z,1.80
2019-05-03T13:24:42.429Z,2.80
2019-05-03T13:27:10.908Z,1.50
2019-05-03T13:29:39.498Z,1.77
2019-05-03T13:32:07.979Z,1.77
2019-05-03T13:34:36.472Z,2.07
2019-05-03T13:37:04.989Z,2.03
2019-05-03T13:39:35.724Z,1.97
2019-05-03T13:42:05.709Z,1.63
2019-05-03T13:44:35.542Z,2.63
2019-05-03T13:47:04.559Z,1.83
2019-05-03T13:49:35.219Z,2.53
2019-05-03T13:52:05.252Z,1.90
2019-05-03T13:54:35.017Z,1.90
2019-05-03T13:57:04.990Z,1.33
2019-05-03T13:59:33.672Z,1.33
2019-05-03T14:02:14.428Z,1.30
2019-05-03T14:04:35.769Z,2.07
2019-05-03T14:07:04.532Z,1.13
2019-05-03T14:09:34.795Z,2.13
2019-05-03T14:12:07.039Z,1.30
2019-05-03T14:14:51.425Z,1.90
2019-05-03T14:17:19.908Z,2.23
2019-05-03T14:19:49.826Z,1.40
2019-05-03T14:22:19.335Z,2.30
2019-05-03T14:24:47.814Z,1.67
2019-05-03T14:27:17.210Z,1.90
2019-05-03T14:29:45.809Z,2.00
2019-05-03T14:32:25.389Z,1.30
2019-05-03T14:34:45.374Z,1.27
2019-05-03T14:37:14.124Z,1.27
2019-05-03T14:39:42.607Z,1.57
2019-05-03T14:42:11.095Z,1.83
2019-05-03T14:44:39.681Z,1.70
2019-05-03T14:47:08.169Z,2.07
2019-05-03T14:49:36.651Z,1.90
2019-05-03T14:52:05.614Z,2.00
2019-05-03T14:54:35.870Z,1.70
2019-05-03T14:57:17.766Z,2.07
2019-05-03T15:00:06.332Z,1.97
2019-05-03T15:02:51.109Z,1.60
2019-05-03T15:05:18.548Z,1.93
2019-05-03T15:07:47.030Z,2.50
2019-05-03T15:10:15.616Z,1.77
2019-05-03T15:12:45.259Z,1.83
2019-05-03T15:15:14.650Z,2.30
2019-05-03T15:17:45.538Z,1.37
2019-05-03T15:20:14.777Z,1.90
2019-05-03T15:22:45.405Z,1.33
2019-05-03T15:25:13.799Z,1.83
2019-05-03T15:27:42.274Z,2.23
2019-05-03T15:30:11.085Z,2.40
2019-05-03T15:32:39.647Z,2.67
2019-05-03T15:35:08.150Z,2.33
2019-05-03T15:37:36.619Z,1.90
2019-05-03T15:40:07.048Z,2.37
2019-05-03T15:42:36.045Z,1.83
2019-05-03T15:45:22.755Z,2.00
2019-05-03T15:47:58.658Z,2.83
2019-05-03T15:50:27.174Z,2.30
2019-05-03T15:52:55.684Z,2.37
2019-05-03T15:55:24.645Z,1.80
2019-05-03T15:57:55.196Z,2.00
2019-05-03T16:00:24.446Z,1.77
2019-05-03T16:02:54.699Z,1.57
2019-05-03T16:05:25.088Z,2.97
2019-05-03T16:07:55.311Z,2.53
2019-05-03T16:10:24.938Z,2.00
2019-05-03T16:12:54.522Z,2.30
2019-05-03T16:15:24.608Z,2.23
2019-05-03T16:17:54.764Z,2.57
2019-05-03T16:20:25.120Z,2.53
2019-05-03T16:22:54.455Z,2.17
2019-05-03T16:25:25.132Z,3.17
2019-05-03T16:27:55.447Z,3.10
2019-05-03T16:30:37.856Z,1.83
2019-05-03T16:33:06.345Z,2.00
2019-05-03T16:35:37.861Z,1.97
2019-05-03T16:38:06.695Z,2.13
2019-05-03T16:40:35.169Z,2.07
2019-05-03T16:43:03.593Z,2.70
2019-05-03T16:45:35.015Z,2.13
2019-05-03T16:48:04.445Z,2.40
2019-05-03T16:50:34.506Z,1.90
2019-05-03T16:53:03.228Z,2.07
2019-05-03T16:55:31.668Z,2.40
2019-05-03T16:58:00.121Z,2.07
2019-05-03T17:00:28.676Z,3.70
2019-05-03T17:02:57.155Z,2.00
2019-05-03T17:05:27.277Z,2.23
2019-05-03T17:08:14.683Z,2.10
2019-05-03T17:10:45.748Z,1.93
2019-05-03T17:13:14.779Z,3.80
2019-05-03T17:15:43.408Z,1.60
2019-05-03T17:18:11.913Z,1.90
2019-05-03T17:20:40.397Z,2.47
2019-05-03T17:23:08.855Z,2.00
2019-05-03T17:25:37.467Z,2.63
2019-05-03T17:28:06.056Z,1.80
2019-05-03T17:30:37.309Z,2.20
2019-05-03T17:33:04.865Z,2.07
2019-05-03T17:35:34.599Z,2.63
2019-05-03T17:38:05.199Z,2.53
2019-05-03T17:40:50.490Z,1.87
2019-05-03T17:43:20.709Z,2.67
2019-05-03T17:45:56.777Z,2.53
2019-05-03T17:48:25.360Z,2.90
2019-05-03T17:50:55.052Z,2.00
2019-05-03T17:53:29.995Z,1.90
2019-05-03T17:56:18.273Z,1.97
2019-05-03T17:58:55.185Z,1.93
2019-05-03T18:01:40.311Z,2.70
2019-05-03T18:04:10.432Z,2.10
2019-05-03T18:06:55.799Z,2.47
2019-05-03T18:09:25.931Z,1.87
2019-05-03T18:11:56.294Z,2.90
2019-05-03T18:14:26.798Z,2.07
2019-05-03T18:16:55.289Z,2.60
2019-05-03T18:19:23.712Z,1.97
2019-05-03T18:21:52.243Z,2.10
2019-05-03T18:24:21.619Z,3.40
2019-05-03T18:26:50.141Z,2.87
2019-05-03T18:29:18.690Z,2.23
2019-05-03T18:31:47.201Z,2.00
2019-05-03T18:34:21.536Z,2.87
2019-05-03T18:36:46.011Z,2.50
2019-05-03T18:39:14.815Z,2.57
2019-05-03T18:41:45.030Z,3.60
2019-05-03T18:44:21.605Z,3.10
2019-05-03T18:46:51.726Z,3.47
2019-05-03T18:49:20.211Z,1.90
2019-05-03T18:51:48.794Z,1.67
2019-05-03T18:54:17.276Z,1.97
2019-05-03T18:56:45.703Z,2.23
2019-05-03T18:59:14.665Z,3.13
2019-05-03T19:01:45.068Z,2.90
2019-05-03T19:04:31.534Z,2.60
2019-05-03T19:07:02.857Z,2.40
2019-05-03T19:09:40.864Z,1.90
2019-05-03T19:12:15.439Z,2.43
2019-05-03T19:14:44.674Z,2.47
2019-05-03T19:17:20.636Z,2.00
2019-05-03T19:19:56.596Z,2.57
2019-05-03T19:22:25.182Z,2.10
2019-05-03T19:24:53.767Z,2.90
2019-05-03T19:27:24.937Z,4.00
2019-05-03T19:29:55.410Z,2.40
2019-05-03T19:32:27.884Z,2.10
2019-05-03T19:34:54.921Z,2.43
2019-05-03T19:37:25.129Z,2.53
2019-05-03T19:39:56.124Z,2.80
2019-05-03T19:42:27.212Z,2.13
2019-05-03T19:44:55.408Z,2.80
2019-05-03T19:47:25.192Z,2.47
2019-05-03T19:49:54.674Z,2.47
2019-05-03T19:52:25.417Z,3.40
2019-05-03T19:54:55.490Z,2.33
2019-05-03T19:57:25.778Z,3.00
2019-05-03T19:59:56.892Z,5.70
2019-05-03T20:02:36.138Z,2.93
2019-05-03T20:05:07.867Z,2.40
2019-05-03T20:07:40.488Z,2.93
2019-05-03T20:10:09.517Z,2.63
2019-05-03T20:12:37.945Z,2.70
2019-05-03T20:15:06.516Z,3.17
2019-05-03T20:17:35.033Z,2.30
2019-05-03T20:20:05.198Z,2.40
2019-05-03T20:22:35.108Z,2.10
2019-05-03T20:25:04.786Z,2.80
2019-05-03T20:27:35.032Z,2.23
2019-05-03T20:30:08.804Z,2.50
2019-05-03T20:32:37.304Z,2.77
2019-05-03T20:35:16.655Z,2.63
2019-05-03T20:37:39.307Z,2.67
2019-05-03T20:40:07.804Z,3.00
2019-05-03T20:42:54.462Z,3.47
2019-05-03T20:45:24.955Z,2.77
2019-05-03T20:47:55.149Z,2.57
2019-05-03T20:50:24.822Z,2.70
2019-05-03T20:52:54.971Z,2.97
2019-05-03T20:55:25.476Z,2.90
2019-05-03T20:57:54.910Z,2.40
2019-05-03T21:00:25.732Z,2.50
2019-05-03T21:02:57.168Z,3.50
2019-05-03T21:05:30.430Z,2.23
2019-05-03T21:07:55.054Z,2.33
2019-05-03T21:10:23.679Z,3.33
2019-05-03T21:12:52.101Z,2.97
2019-05-03T21:15:22.208Z,2.30
2019-05-03T21:18:08.593Z,3.47
2019-05-03T21:20:38.748Z,2.40
2019-05-03T21:23:08.934Z,3.77
2019-05-03T21:26:03.535Z,2.97
2019-05-03T21:28:12.354Z,2.17
2019-05-03T21:30:40.842Z,3.93
2019-05-03T21:33:09.324Z,2.90
2019-05-03T21:35:41.541Z,2.67
2019-05-03T21:38:07.959Z,3.07
2019-05-03T21:40:36.510Z,2.57
2019-05-03T21:43:05.216Z,2.27
2019-05-03T21:45:38.295Z,2.40
2019-05-03T21:48:11.178Z,2.00
2019-05-03T21:50:39.672Z,3.83
2019-05-03T21:53:08.149Z,2.27
2019-05-03T21:55:36.634Z,1.70
2019-05-03T21:58:05.120Z,1.97
2019-05-03T22:00:36.429Z,1.83
2019-05-03T22:03:05.384Z,2.80
2019-05-03T22:05:35.411Z,2.23
2019-05-03T22:08:04.537Z,2.20
2019-05-03T22:10:34.636Z,2.33
2019-05-03T22:13:04.888Z,2.00
2019-05-03T22:15:38.050Z,2.47
2019-05-03T22:18:08.259Z,2.03
2019-05-03T22:20:38.370Z,3.07
2019-05-03T22:23:08.483Z,1.83
2019-05-03T22:25:38.609Z,2.17
2019-05-03T22:28:07.150Z,2.60
2019-05-03T22:30:35.630Z,2.97
2019-05-03T22:33:05.228Z,2.60
2019-05-03T22:35:35.285Z,2.40
2019-05-03T22:38:04.604Z,2.17
2019-05-03T22:40:35.436Z,2.40
2019-05-03T22:43:04.140Z,2.57
2019-05-03T22:45:32.624Z,2.10
2019-05-03T22:48:01.343Z,2.67
2019-05-03T22:50:29.793Z,2.80
2019-05-03T22:52:58.278Z,2.10
2019-05-03T22:55:26.863Z,2.47
2019-05-03T22:57:55.279Z,2.90
2019-05-03T23:00:25.205Z,2.03
2019-05-03T23:02:54.754Z,2.13
2019-05-03T23:05:23.468Z,2.50
2019-05-03T23:07:51.959Z,2.07
2019-05-03T23:10:20.554Z,2.60
2019-05-03T23:12:49.024Z,2.47
2019-05-03T23:15:17.506Z,1.97
2019-05-03T23:17:46.094Z,2.27
2019-05-03T23:20:25.519Z,2.77
2019-05-03T23:22:54.739Z,2.97
2019-05-03T23:25:24.995Z,3.20
2019-05-03T23:27:55.135Z,2.70
2019-05-03T23:30:24.858Z,3.10
2019-05-03T23:32:54.703Z,2.47
2019-05-03T23:35:24.651Z,2.87
2019-05-03T23:37:54.340Z,2.80
2019-05-03T23:40:23.055Z,2.50
2019-05-03T23:42:51.511Z,2.40
2019-05-03T23:45:20.200Z,2.63
2019-05-03T23:47:49.300Z,2.40
2019-05-03T23:50:19.420Z,2.60
2019-05-03T23:52:47.909Z,3.30
2019-05-03T23:55:18.029Z,2.97
2019-05-03T23:57:46.513Z,2.50
